Aviation Digital Data Service (ADDS)

Output produced by METARs form (0558 UTC 20 October 2018)
found at http://www.aviationweather.gov/metar/data/
 
LKCV 200511Z 23004KT 2000 BR OVC007 10/10 Q1025 RMK YLO
TAF LKCV 192300Z 2000/2100 VRB02KT 2500 BR BKN020 
     TEMPO 2000/2007 1200 BR 
     PROB30 
     TEMPO 2001/2006 0800 FG OVC003 
     BECMG 2008/2010 27008KT 8000 BKN025
       
LKKV 200500Z 00000KT 0400 R29/0750 FG VV002 08/07 Q1026
TAF LKKV 200500Z 2006/2112 VRB02KT 0300 FG OVC001 
     BECMG 2008/2010 5000 BR BKN014 
     BECMG 2010/2012 9999 BKN030 
     TEMPO 2100/2108 3000 BR BKN009
       
LKKB 200500Z 29003KT 5000 BR OVC013 10/09 Q1025 NOSIG
TAF LKKB 192300Z 2000/2100 VRB02KT 2000 BR BKN014 
     TEMPO 2000/2006 1000 BR OVC007 
     PROB40 
     TEMPO 2000/2006 0600 FG OVC002 
     BECMG 2007/2010 35008KT 8000 BKN025 
     BECMG 2013/2016 CAVOK
       
LKLN 200500Z AUTO 20002KT 2000 BR OVC003 07/07 Q1026
LKMT 200530Z 35003KT 1200 R22/P2000N R04/P2000N BR OVC004 10/10 Q1025 NOSIG
TAF LKMT 200500Z 2006/2112 02003KT 3000 BR OVC007 
     TEMPO 2006/2008 0900 FG BKN003 
     BECMG 2009/2011 5000 BR BKN014 
     BECMG 2013/2015 03008KT 9999 BKN030 
     BECMG 2100/2102 3000 BR BKN014 
     TEMPO 2102/2109 1000 BR BKN009
       
LKNA 200500Z 30006KT 1400 R31/1400U BR BKN039 06/06 Q1024 NOSIG
TAF LKNA 192300Z 2000/2100 VRB02KT 0700 FG BKN003 
     BECMG 2008/2010 31012KT 5000 BR BKN025 
     TEMPO 2012/2015 31018KT CAVOK
       
LKPD 200500Z VRB02KT 2000 BR OVC003 10/09 Q1025 RMK BLACK
LKPR 200546Z 33004KT 300V360 5000 BR FEW006 OVC025 10/09 Q1026 RMK REG QNH 1022
TAF LKPR 200500Z 2006/2112 36007KT 6000 BKN017 
     TEMPO 2006/2009 3000 BR BKN012 
     PROB30 
     TEMPO 2006/2008 BKN008 
     BECMG 2009/2012 9999 SCT023 
     BECMG 2012/2014 BKN030 
     BECMG 2021/2023 31007KT
       
LKTB 200530Z 30003KT 1800 BR BKN046 08/08 Q1025 NOSIG
TAF LKTB 200500Z 2006/2112 32005KT 3000 BR SCT007 BKN045 
     TEMPO 2006/2008 1100 BR 
     BECMG 2009/2011 32008KT 9999 BKN035 
     BECMG 2013/2015 SCT040 
     TEMPO 2104/2108 5000 BR BKN020